createdAt,value
2022-09-06T00:00:12.064Z,82.06
2022-09-06T00:01:14.067Z,81.82
2022-09-06T00:02:11.065Z,81.79
2022-09-06T00:03:11.077Z,81.71
2022-09-06T00:04:15.222Z,81.74
2022-09-06T00:05:11.066Z,81.72
2022-09-06T00:06:11.071Z,81.78
2022-09-06T00:07:11.063Z,81.71
2022-09-06T00:08:11.067Z,81.72
2022-09-06T00:09:11.074Z,81.69
2022-09-06T00:10:11.068Z,81.67
2022-09-06T00:11:11.069Z,81.74
2022-09-06T00:12:11.072Z,81.52
2022-09-06T00:13:11.064Z,81.44
2022-09-06T00:14:11.065Z,81.43
2022-09-06T00:15:11.080Z,81.36
2022-09-06T00:16:14.144Z,81.33
2022-09-06T00:17:11.080Z,81.27
2022-09-06T00:18:11.073Z,81.26
2022-09-06T00:19:11.064Z,81.34
2022-09-06T00:20:12.072Z,81.22
2022-09-06T00:21:18.059Z,81.04
2022-09-06T00:22:11.054Z,81.19
2022-09-06T00:23:11.058Z,81.30
2022-09-06T00:24:11.064Z,81.25
2022-09-06T00:25:11.054Z,81.09
2022-09-06T00:26:11.058Z,81.12
2022-09-06T00:27:11.063Z,81.02
2022-09-06T00:28:11.055Z,81.25
2022-09-06T00:29:11.059Z,81.16
2022-09-06T00:30:11.066Z,81.01
2022-09-06T00:31:13.127Z,80.83
2022-09-06T00:32:11.054Z,80.69
2022-09-06T00:33:11.061Z,80.63
2022-09-06T00:34:11.060Z,80.52
2022-09-06T00:35:11.057Z,80.44
2022-09-06T00:36:11.058Z,80.35
2022-09-06T00:37:11.059Z,80.26
2022-09-06T00:38:11.059Z,80.17
2022-09-06T00:39:11.057Z,80.06
2022-09-06T00:40:11.154Z,80.02
2022-09-06T00:41:11.060Z,79.96
2022-09-06T00:42:11.058Z,79.82
2022-09-06T00:43:11.061Z,79.80
2022-09-06T00:44:11.058Z,79.88
2022-09-06T00:45:11.059Z,80.08
2022-09-06T00:46:13.110Z,80.15
2022-09-06T00:47:11.062Z,80.07
2022-09-06T00:48:11.058Z,80.14
2022-09-06T00:49:20.061Z,80.09
2022-09-06T00:50:12.057Z,80.08
2022-09-06T00:51:11.060Z,80.12
2022-09-06T00:52:13.061Z,80.06
2022-09-06T00:53:11.060Z,80.23
2022-09-06T00:54:11.060Z,80.34
2022-09-06T00:55:11.061Z,80.13
2022-09-06T00:56:11.059Z,79.98
2022-09-06T00:57:11.061Z,79.87
2022-09-06T00:58:11.063Z,79.83
2022-09-06T00:59:11.061Z,79.84
2022-09-06T01:00:11.061Z,79.67
2022-09-06T01:01:11.210Z,79.64
2022-09-06T01:02:11.163Z,79.54
2022-09-06T01:03:11.062Z,79.61
2022-09-06T01:04:11.062Z,79.54
2022-09-06T01:05:11.062Z,79.75
2022-09-06T01:06:21.063Z,79.76
2022-09-06T01:07:19.070Z,79.60
2022-09-06T01:08:19.064Z,79.66
2022-09-06T01:09:19.061Z,79.76
2022-09-06T01:10:19.060Z,79.88
2022-09-06T01:11:19.063Z,79.96
2022-09-06T01:12:19.076Z,80.15
2022-09-06T01:13:21.063Z,80.21
2022-09-06T01:14:21.061Z,80.42
2022-09-06T01:15:19.063Z,80.42
2022-09-06T01:16:19.193Z,80.54
2022-09-06T01:17:19.070Z,80.68
2022-09-06T01:18:19.068Z,80.72
2022-09-06T01:19:19.062Z,80.69
2022-09-06T01:20:21.056Z,80.68
2022-09-06T01:21:19.060Z,80.60
2022-09-06T01:22:19.062Z,80.50
2022-09-06T01:23:19.061Z,80.43
2022-09-06T01:24:23.061Z,80.60
2022-09-06T01:25:21.059Z,80.49
2022-09-06T01:26:19.056Z,80.53
2022-09-06T01:27:21.059Z,80.50
2022-09-06T01:28:19.069Z,80.37
2022-09-06T01:29:19.061Z,80.58
2022-09-06T01:30:11.058Z,80.49
2022-09-06T01:31:21.165Z,80.30
2022-09-06T01:32:19.063Z,80.44
2022-09-06T01:33:19.068Z,80.41
2022-09-06T01:34:21.063Z,80.36
2022-09-06T01:35:19.059Z,80.40
2022-09-06T01:36:14.058Z,80.25
2022-09-06T01:37:16.064Z,80.28
2022-09-06T01:38:11.069Z,80.35
2022-09-06T01:39:17.062Z,80.22
2022-09-06T01:40:11.158Z,80.15
2022-09-06T01:41:11.069Z,80.08
2022-09-06T01:42:15.060Z,80.08
2022-09-06T01:43:13.065Z,80.06
2022-09-06T01:44:11.062Z,80.14
2022-09-06T01:45:12.066Z,80.17
2022-09-06T01:46:19.122Z,80.09
2022-09-06T01:47:21.062Z,80.18
2022-09-06T01:48:21.181Z,80.15
2022-09-06T01:49:19.064Z,80.11
2022-09-06T01:50:21.065Z,80.04
2022-09-06T01:51:21.065Z,80.13
2022-09-06T01:52:19.065Z,80.18
2022-09-06T01:53:21.066Z,80.22
2022-09-06T01:54:21.071Z,80.20
2022-09-06T01:55:19.064Z,80.49
2022-09-06T01:56:19.063Z,80.47
2022-09-06T01:57:21.067Z,80.34
2022-09-06T01:58:19.067Z,80.41
2022-09-06T01:59:19.066Z,80.36
2022-09-06T02:00:14.065Z,80.44
2022-09-06T02:01:19.186Z,80.37
2022-09-06T02:02:17.137Z,80.33
2022-09-06T02:03:19.066Z,80.16
2022-09-06T02:04:19.065Z,80.04
2022-09-06T02:05:21.062Z,80.05
2022-09-06T02:06:14.066Z,80.03
2022-09-06T02:07:20.076Z,80.03
2022-09-06T02:08:12.074Z,80.27
2022-09-06T02:09:14.064Z,80.25
2022-09-06T02:10:20.068Z,80.24
2022-09-06T02:11:11.065Z,80.38
2022-09-06T02:12:12.066Z,80.64
2022-09-06T02:13:12.066Z,80.68
2022-09-06T02:14:17.070Z,80.90
2022-09-06T02:15:16.069Z,80.80
2022-09-06T02:16:12.065Z,80.67
2022-09-06T02:17:13.069Z,80.57
2022-09-06T02:18:16.075Z,80.69
2022-09-06T02:19:17.069Z,80.76
2022-09-06T02:20:18.066Z,80.83
2022-09-06T02:21:12.059Z,80.97
2022-09-06T02:22:11.065Z,80.80
2022-09-06T02:23:11.066Z,80.67
2022-09-06T02:24:15.064Z,80.67
2022-09-06T02:25:14.071Z,80.69
2022-09-06T02:26:13.066Z,80.67
2022-09-06T02:27:11.063Z,80.66
2022-09-06T02:28:11.070Z,80.59
2022-09-06T02:29:11.065Z,80.64
2022-09-06T02:30:11.063Z,80.66
2022-09-06T02:31:19.143Z,80.68
2022-09-06T02:32:18.067Z,80.84
2022-09-06T02:33:14.063Z,81.30
2022-09-06T02:34:11.061Z,81.32
2022-09-06T02:35:14.072Z,81.20
2022-09-06T02:36:11.068Z,81.12
2022-09-06T02:37:11.065Z,81.28
2022-09-06T02:38:11.070Z,81.14
2022-09-06T02:39:11.066Z,81.32
2022-09-06T02:40:11.174Z,81.41
2022-09-06T02:41:11.064Z,81.55
2022-09-06T02:42:11.065Z,81.85
2022-09-06T02:43:11.069Z,81.95
2022-09-06T02:44:11.067Z,82.12
2022-09-06T02:45:11.066Z,81.96
2022-09-06T02:46:11.147Z,82.06
2022-09-06T02:47:11.068Z,82.11
2022-09-06T02:48:11.067Z,82.54
2022-09-06T02:49:11.063Z,82.60
2022-09-06T02:50:12.074Z,82.52
2022-09-06T02:51:11.067Z,82.32
2022-09-06T02:52:11.067Z,82.26
2022-09-06T02:53:14.073Z,82.15
2022-09-06T02:54:11.069Z,82.17
2022-09-06T02:55:11.070Z,82.22
2022-09-06T02:56:11.069Z,82.12
2022-09-06T02:57:11.069Z,82.18
2022-09-06T02:58:11.068Z,82.27
2022-09-06T02:59:11.068Z,82.59
2022-09-06T03:00:11.072Z,82.55
2022-09-06T03:01:11.092Z,82.42
2022-09-06T03:02:11.145Z,82.33
2022-09-06T03:03:11.070Z,82.46
2022-09-06T03:04:11.067Z,82.34
2022-09-06T03:05:11.067Z,82.18
2022-09-06T03:06:11.070Z,82.15
2022-09-06T03:07:11.070Z,82.02
2022-09-06T03:08:11.068Z,81.98
2022-09-06T03:09:11.069Z,82.02
2022-09-06T03:10:11.068Z,81.95
2022-09-06T03:11:11.070Z,81.94
2022-09-06T03:12:11.070Z,81.77
2022-09-06T03:13:11.068Z,81.82
2022-09-06T03:14:11.068Z,81.83
2022-09-06T03:15:11.070Z,81.78
2022-09-06T03:16:11.126Z,82.15
2022-09-06T03:17:11.076Z,81.98
2022-09-06T03:18:11.071Z,82.16
2022-09-06T03:19:11.071Z,82.25
2022-09-06T03:20:11.069Z,82.00
2022-09-06T03:21:11.064Z,82.26
2022-09-06T03:22:11.068Z,82.28
2022-09-06T03:23:11.069Z,82.39
2022-09-06T03:24:11.067Z,82.35
2022-09-06T03:25:11.061Z,82.55
2022-09-06T03:26:11.065Z,82.33
2022-09-06T03:27:11.075Z,82.21
2022-09-06T03:28:11.068Z,82.14
2022-09-06T03:29:11.068Z,82.32
2022-09-06T03:30:11.074Z,82.33
2022-09-06T03:31:11.159Z,82.42
2022-09-06T03:32:11.072Z,82.34
2022-09-06T03:33:11.072Z,82.07
2022-09-06T03:34:11.392Z,82.15
2022-09-06T03:35:11.066Z,82.19
2022-09-06T03:36:11.074Z,82.11
2022-09-06T03:37:11.079Z,82.07
2022-09-06T03:38:11.069Z,81.99
2022-09-06T03:39:11.084Z,81.84
2022-09-06T03:40:11.223Z,82.00
2022-09-06T03:41:11.061Z,82.13
2022-09-06T03:42:11.074Z,82.07
2022-09-06T03:43:11.069Z,82.21
2022-09-06T03:44:11.062Z,82.21
2022-09-06T03:45:11.071Z,82.43
2022-09-06T03:46:11.152Z,82.56
2022-09-06T03:47:11.063Z,82.64
2022-09-06T03:48:11.081Z,82.37
2022-09-06T03:49:11.068Z,82.28
2022-09-06T03:50:11.064Z,82.09
2022-09-06T03:51:11.071Z,81.94
2022-09-06T03:52:11.068Z,81.86
2022-09-06T03:53:11.064Z,81.80
2022-09-06T03:54:11.069Z,81.69
2022-09-06T03:55:11.069Z,81.64
2022-09-06T03:56:11.071Z,81.58
2022-09-06T03:57:11.079Z,81.45
2022-09-06T03:58:11.069Z,81.40
2022-09-06T03:59:11.071Z,81.49
2022-09-06T04:00:11.079Z,81.29
2022-09-06T04:01:11.155Z,81.10
2022-09-06T04:02:11.164Z,81.19
2022-09-06T04:03:11.081Z,81.37
2022-09-06T04:04:11.067Z,81.50
2022-09-06T04:05:11.070Z,81.55
2022-09-06T04:06:11.077Z,81.88
2022-09-06T04:07:11.066Z,82.17
2022-09-06T04:08:11.074Z,82.08
2022-09-06T04:09:11.085Z,81.85
2022-09-06T04:10:11.068Z,81.80
2022-09-06T04:11:11.073Z,81.82
2022-09-06T04:12:11.077Z,82.06
2022-09-06T04:13:11.069Z,81.73
2022-09-06T04:14:11.072Z,81.61
2022-09-06T04:15:11.078Z,81.53
2022-09-06T04:16:11.130Z,81.74
2022-09-06T04:17:11.066Z,81.93
2022-09-06T04:18:11.072Z,82.02
2022-09-06T04:19:11.074Z,82.19
2022-09-06T04:20:11.068Z,82.11
2022-09-06T04:21:11.064Z,82.23
2022-09-06T04:22:11.060Z,82.38
2022-09-06T04:23:11.057Z,82.58
2022-09-06T04:24:11.061Z,82.62
2022-09-06T04:25:11.066Z,82.88
2022-09-06T04:26:11.062Z,83.00
2022-09-06T04:27:11.060Z,82.90
2022-09-06T04:28:11.066Z,83.06
2022-09-06T04:29:11.060Z,83.04
2022-09-06T04:30:11.062Z,82.94
2022-09-06T04:31:11.065Z,82.99
2022-09-06T04:32:11.100Z,83.24
2022-09-06T04:33:11.056Z,83.50
2022-09-06T04:34:11.072Z,83.59
2022-09-06T04:35:11.064Z,83.58
2022-09-06T04:36:11.066Z,83.85
2022-09-06T04:37:11.063Z,84.09
2022-09-06T04:38:11.063Z,84.28
2022-09-06T04:39:11.059Z,84.25
2022-09-06T04:40:11.152Z,83.83
2022-09-06T04:41:11.081Z,83.67
2022-09-06T04:42:11.060Z,83.90
2022-09-06T04:43:11.065Z,83.81
2022-09-06T04:44:11.068Z,83.40
2022-09-06T04:45:11.062Z,83.11
2022-09-06T04:46:19.145Z,83.11
2022-09-06T04:47:14.062Z,83.27
2022-09-06T04:48:11.070Z,83.46
2022-09-06T04:49:11.061Z,83.62
2022-09-06T04:50:11.066Z,83.62
2022-09-06T04:51:11.070Z,84.07
2022-09-06T04:52:11.064Z,84.11
2022-09-06T04:53:11.154Z,83.78
2022-09-06T04:54:11.064Z,83.46
2022-09-06T04:55:11.063Z,83.46
2022-09-06T04:56:16.068Z,83.91
2022-09-06T04:57:11.065Z,84.20
2022-09-06T04:58:11.071Z,84.12
2022-09-06T04:59:11.065Z,84.20
2022-09-06T05:00:11.060Z,84.25
2022-09-06T05:01:11.184Z,84.61
2022-09-06T05:02:11.096Z,84.66
2022-09-06T05:03:11.064Z,84.68
2022-09-06T05:04:11.063Z,84.51
2022-09-06T05:05:11.067Z,84.59
2022-09-06T05:06:18.062Z,84.59
2022-09-06T05:07:11.066Z,84.64
2022-09-06T05:08:11.072Z,84.61
2022-09-06T05:09:11.065Z,84.66
2022-09-06T05:10:11.069Z,84.62
2022-09-06T05:11:11.073Z,84.66
2022-09-06T05:12:11.068Z,84.71
2022-09-06T05:13:11.072Z,84.78
2022-09-06T05:14:11.069Z,84.83
2022-09-06T05:15:11.068Z,84.78
2022-09-06T05:16:11.096Z,84.64
2022-09-06T05:17:11.067Z,84.89
2022-09-06T05:18:15.550Z,84.80
2022-09-06T05:19:13.112Z,84.53
2022-09-06T05:20:11.070Z,84.62
2022-09-06T05:21:11.062Z,84.76
2022-09-06T05:22:11.061Z,84.37
2022-09-06T05:23:11.059Z,84.18
2022-09-06T05:24:11.058Z,84.00
2022-09-06T05:25:11.061Z,84.00
2022-09-06T05:26:11.059Z,83.97
2022-09-06T05:27:11.061Z,84.04
2022-09-06T05:28:11.067Z,84.28
2022-09-06T05:29:11.061Z,84.38
2022-09-06T05:30:11.063Z,84.29
2022-09-06T05:31:11.073Z,84.14
2022-09-06T05:32:11.061Z,84.03
2022-09-06T05:33:11.066Z,84.02
2022-09-06T05:34:11.063Z,84.19
2022-09-06T05:35:11.062Z,84.21
2022-09-06T05:36:11.062Z,84.20
2022-09-06T05:37:11.060Z,84.40
2022-09-06T05:38:11.064Z,84.46
2022-09-06T05:39:11.059Z,84.35
2022-09-06T05:40:11.103Z,84.38
2022-09-06T05:41:11.069Z,84.42
2022-09-06T05:42:11.063Z,84.32
2022-09-06T05:43:11.066Z,84.12
2022-09-06T05:44:11.070Z,84.26
2022-09-06T05:45:11.061Z,84.37
2022-09-06T05:46:11.130Z,84.09
2022-09-06T05:47:11.072Z,84.07
2022-09-06T05:48:11.065Z,84.22
2022-09-06T05:49:11.060Z,84.32
2022-09-06T05:50:11.065Z,84.26
2022-09-06T05:51:13.063Z,84.54
2022-09-06T05:52:11.063Z,84.60
2022-09-06T05:53:11.064Z,84.46
2022-09-06T05:54:12.066Z,84.40
2022-09-06T05:55:11.087Z,84.05
2022-09-06T05:56:13.069Z,83.89
2022-09-06T05:57:11.066Z,83.92
2022-09-06T05:58:11.071Z,83.58
2022-09-06T05:59:11.068Z,83.42
2022-09-06T06:00:11.074Z,83.54
2022-09-06T06:01:21.123Z,83.62
2022-09-06T06:02:11.084Z,83.97
2022-09-06T06:03:11.064Z,84.11
2022-09-06T06:04:11.067Z,84.23
2022-09-06T06:05:11.064Z,84.14
2022-09-06T06:06:11.067Z,84.53
2022-09-06T06:07:11.074Z,84.85
2022-09-06T06:08:11.067Z,85.08
2022-09-06T06:09:11.066Z,85.20
2022-09-06T06:10:11.078Z,85.09
2022-09-06T06:11:11.067Z,84.75
2022-09-06T06:12:11.068Z,84.41
2022-09-06T06:13:11.074Z,84.82
2022-09-06T06:14:11.068Z,84.45
2022-09-06T06:15:11.065Z,84.30
2022-09-06T06:16:13.134Z,84.30
2022-09-06T06:17:11.070Z,84.57
2022-09-06T06:18:11.071Z,84.61
2022-09-06T06:19:11.068Z,84.69
2022-09-06T06:20:11.078Z,84.73
2022-09-06T06:21:15.061Z,84.83
2022-09-06T06:22:11.070Z,84.89
2022-09-06T06:23:11.075Z,85.22
2022-09-06T06:24:11.072Z,85.16
2022-09-06T06:25:12.603Z,85.12
2022-09-06T06:26:11.081Z,85.17
2022-09-06T06:27:11.073Z,85.08
2022-09-06T06:28:11.062Z,84.98
2022-09-06T06:29:13.064Z,84.95
2022-09-06T06:30:13.246Z,85.05
2022-09-06T06:31:13.899Z,84.90
2022-09-06T06:32:11.094Z,84.95
2022-09-06T06:33:11.061Z,85.23
2022-09-06T06:34:11.058Z,85.42
2022-09-06T06:35:11.059Z,85.21
2022-09-06T06:36:19.061Z,84.99
2022-09-06T06:37:11.062Z,85.05
2022-09-06T06:38:11.057Z,85.06
2022-09-06T06:39:11.064Z,85.06
2022-09-06T06:40:11.126Z,85.23
2022-09-06T06:41:11.060Z,85.39
2022-09-06T06:42:11.063Z,85.16
2022-09-06T06:43:11.064Z,85.05
2022-09-06T06:44:11.057Z,85.00
2022-09-06T06:45:11.077Z,84.86
2022-09-06T06:46:12.102Z,85.32
2022-09-06T06:47:11.062Z,85.13
2022-09-06T06:48:11.066Z,85.31
2022-09-06T06:49:11.064Z,85.32
2022-09-06T06:50:11.063Z,85.16
2022-09-06T06:51:14.064Z,85.21
2022-09-06T06:52:11.063Z,85.23
2022-09-06T06:53:11.060Z,85.26
2022-09-06T06:54:11.063Z,85.22
2022-09-06T06:55:11.069Z,84.93
2022-09-06T06:56:19.061Z,84.85
2022-09-06T06:57:11.059Z,84.74
2022-09-06T06:58:11.066Z,84.83
2022-09-06T06:59:11.064Z,84.93
2022-09-06T07:00:11.064Z,84.92
2022-09-06T07:01:11.166Z,84.81
2022-09-06T07:02:11.183Z,84.65
2022-09-06T07:03:11.065Z,84.59
2022-09-06T07:04:11.070Z,84.69
2022-09-06T07:06:13.336Z,84.16
2022-09-06T07:07:37.933Z,84.09
2022-09-06T07:08:13.088Z,84.10
2022-09-06T07:09:11.064Z,83.95
2022-09-06T07:10:34.747Z,84.13
2022-09-06T07:11:13.067Z,84.17
2022-09-06T07:12:11.066Z,84.24
2022-09-06T07:13:11.065Z,84.31
2022-09-06T07:14:11.067Z,84.24
2022-09-06T07:15:11.073Z,84.08
2022-09-06T07:16:15.156Z,83.92
2022-09-06T07:17:11.065Z,83.82
2022-09-06T07:18:11.066Z,84.17
2022-09-06T07:20:13.872Z,84.35
2022-09-06T07:21:39.313Z,84.21
2022-09-06T07:22:13.756Z,84.20
2022-09-06T07:24:13.328Z,83.93
2022-09-06T07:25:11.062Z,83.84
2022-09-06T07:26:14.061Z,83.96
2022-09-06T07:28:14.086Z,83.91
2022-09-06T07:29:11.067Z,83.70
2022-09-06T07:30:11.063Z,83.84
2022-09-06T07:32:13.154Z,83.89
2022-09-06T07:33:11.069Z,83.94
2022-09-06T07:34:11.059Z,83.91
2022-09-06T07:35:11.063Z,84.26
2022-09-06T07:36:11.068Z,84.33
2022-09-06T07:37:11.062Z,84.51
2022-09-06T07:38:11.064Z,84.62
2022-09-06T07:39:11.064Z,84.88
2022-09-06T07:40:11.137Z,84.66
2022-09-06T07:41:12.058Z,84.31
2022-09-06T07:42:11.065Z,84.15
2022-09-06T07:43:11.065Z,84.16
2022-09-06T07:44:11.061Z,84.42
2022-09-06T07:45:11.070Z,84.16
2022-09-06T07:46:11.064Z,84.09
2022-09-06T07:48:13.852Z,84.16
2022-09-06T07:49:11.064Z,84.41
2022-09-06T07:51:20.063Z,84.14
2022-09-06T07:53:15.315Z,83.99
2022-09-06T07:54:29.825Z,83.92
2022-09-06T07:55:13.065Z,83.89
2022-09-06T07:56:11.066Z,83.86
2022-09-06T07:57:11.064Z,84.15
2022-09-06T07:58:11.077Z,84.04
2022-09-06T07:59:11.067Z,84.08
2022-09-06T08:00:11.067Z,83.95
2022-09-06T08:01:19.143Z,83.82
2022-09-06T08:02:11.145Z,83.54
2022-09-06T08:03:11.077Z,83.59
2022-09-06T08:04:13.085Z,83.61
2022-09-06T08:06:13.086Z,83.66
2022-09-06T08:07:39.674Z,83.46
2022-09-06T08:09:13.118Z,83.88
2022-09-06T08:10:11.069Z,83.71
2022-09-06T08:11:13.088Z,83.65
2022-09-06T08:12:12.066Z,83.75
2022-09-06T08:13:11.069Z,83.67
2022-09-06T08:14:11.066Z,83.57
2022-09-06T08:15:11.068Z,83.29
2022-09-06T08:16:11.096Z,83.33
2022-09-06T08:17:11.067Z,83.29
2022-09-06T08:18:11.067Z,83.44
2022-09-06T08:19:12.071Z,83.45
2022-09-06T08:20:11.068Z,83.42
2022-09-06T08:21:15.058Z,83.32
2022-09-06T08:22:11.058Z,83.45
2022-09-06T08:23:13.061Z,83.26
2022-09-06T08:24:11.058Z,83.21
2022-09-06T08:25:11.060Z,83.20
2022-09-06T08:26:11.061Z,83.37
2022-09-06T08:27:11.058Z,83.24
2022-09-06T08:28:11.064Z,83.28
2022-09-06T08:29:11.084Z,83.27
2022-09-06T08:30:11.059Z,83.27
2022-09-06T08:31:17.142Z,83.09
2022-09-06T08:32:11.071Z,83.08
2022-09-06T08:33:11.062Z,82.96
2022-09-06T08:34:11.060Z,82.76
2022-09-06T08:35:11.063Z,82.73
2022-09-06T08:36:11.063Z,82.76
2022-09-06T08:37:11.057Z,82.75
2022-09-06T08:38:11.062Z,82.81
2022-09-06T08:39:11.065Z,82.94
2022-09-06T08:40:11.154Z,82.64
2022-09-06T08:41:19.071Z,82.64
2022-09-06T08:42:11.071Z,82.50
2022-09-06T08:43:16.062Z,82.60
2022-09-06T08:45:17.139Z,82.48
2022-09-06T08:46:11.130Z,82.35
2022-09-06T08:47:11.060Z,82.53
2022-09-06T08:48:11.062Z,82.74
2022-09-06T08:49:11.065Z,82.55
2022-09-06T08:50:11.062Z,82.31
2022-09-06T08:51:21.062Z,82.25
2022-09-06T08:52:21.076Z,82.50
2022-09-06T08:53:18.447Z,82.48
2022-09-06T08:54:18.063Z,82.66
2022-09-06T08:55:19.061Z,82.42
2022-09-06T08:56:21.064Z,82.27
2022-09-06T08:57:19.073Z,82.43
2022-09-06T08:58:19.067Z,82.13
2022-09-06T08:59:15.065Z,81.87
2022-09-06T09:00:14.062Z,81.64
2022-09-06T09:01:17.115Z,81.62
2022-09-06T09:02:14.117Z,81.79
2022-09-06T09:03:16.611Z,81.43
2022-09-06T09:04:15.070Z,81.65
2022-09-06T09:05:19.073Z,81.42
2022-09-06T09:06:11.077Z,81.39
2022-09-06T09:07:19.065Z,81.69
2022-09-06T09:08:19.069Z,81.42
2022-09-06T09:09:14.068Z,80.89
2022-09-06T09:10:16.070Z,80.52
2022-09-06T09:11:18.078Z,80.70
2022-09-06T09:12:11.069Z,80.65
2022-09-06T09:13:19.077Z,80.25
2022-09-06T09:14:19.067Z,80.00
2022-09-06T09:15:12.066Z,79.65
2022-09-06T09:16:11.129Z,79.65
2022-09-06T09:17:20.079Z,80.01
2022-09-06T09:18:11.068Z,80.23
2022-09-06T09:19:11.066Z,80.35
2022-09-06T09:20:12.070Z,80.19
2022-09-06T09:21:11.066Z,79.48
2022-09-06T09:22:11.057Z,80.03
2022-09-06T09:23:11.060Z,79.69
2022-09-06T09:24:14.067Z,79.97
2022-09-06T09:25:15.064Z,79.62
2022-09-06T09:26:15.060Z,79.30
2022-09-06T09:27:11.121Z,79.18
2022-09-06T09:28:16.073Z,79.36
2022-09-06T09:29:14.061Z,79.35
2022-09-06T09:31:13.335Z,79.38
2022-09-06T09:32:11.067Z,79.68
2022-09-06T09:33:19.059Z,79.24
2022-09-06T09:34:21.065Z,78.96
2022-09-06T09:35:19.062Z,78.06
2022-09-06T09:36:12.062Z,77.97
2022-09-06T09:37:46.911Z,77.58
2022-09-06T09:38:13.298Z,77.32
2022-09-06T09:39:13.065Z,77.37
2022-09-06T09:40:21.070Z,77.29
2022-09-06T09:41:11.065Z,77.27
2022-09-06T09:42:11.061Z,76.79
2022-09-06T09:43:20.060Z,76.57
2022-09-06T09:44:17.064Z,76.56
2022-09-06T09:45:19.063Z,76.67
2022-09-06T09:46:21.088Z,76.72
2022-09-06T09:47:19.060Z,75.87
2022-09-06T09:48:19.063Z,75.84
2022-09-06T09:49:19.071Z,76.07
2022-09-06T09:50:19.063Z,76.18
2022-09-06T09:51:25.499Z,76.45
2022-09-06T09:52:16.337Z,76.21
2022-09-06T09:53:14.063Z,75.67
2022-09-06T09:54:14.078Z,75.51
2022-09-06T09:55:12.063Z,75.62
2022-09-06T09:56:11.065Z,75.43
2022-09-06T09:57:13.073Z,75.26
2022-09-06T09:58:19.062Z,74.81
2022-09-06T09:59:19.060Z,74.29
2022-09-06T10:00:15.065Z,74.53
2022-09-06T10:01:21.083Z,74.31
2022-09-06T10:02:19.066Z,74.66
2022-09-06T10:03:16.108Z,74.28
2022-09-06T10:05:21.294Z,73.65
2022-09-06T10:07:16.071Z,73.27
2022-09-06T10:08:14.073Z,73.49
2022-09-06T10:09:21.068Z,73.58
2022-09-06T10:10:19.075Z,73.27
2022-09-06T10:11:13.066Z,73.39
2022-09-06T10:12:15.065Z,73.28
2022-09-06T10:13:21.066Z,72.98
2022-09-06T10:14:18.075Z,72.90
2022-09-06T10:15:11.069Z,72.74
2022-09-06T10:16:11.174Z,72.26
2022-09-06T10:17:15.068Z,71.97
2022-09-06T10:18:21.072Z,71.81
2022-09-06T10:19:19.070Z,71.91
2022-09-06T10:20:12.071Z,72.05
2022-09-06T10:21:17.058Z,72.06
2022-09-06T10:22:19.065Z,71.60
2022-09-06T10:24:28.436Z,71.32
2022-09-06T10:25:21.069Z,71.46
2022-09-06T10:26:19.060Z,71.51
2022-09-06T10:27:11.058Z,71.54
2022-09-06T10:28:19.064Z,71.67
2022-09-06T10:29:11.061Z,71.51
2022-09-06T10:30:11.059Z,71.35
2022-09-06T10:31:19.137Z,71.53
2022-09-06T10:32:19.062Z,71.39
2022-09-06T10:33:21.059Z,71.68
2022-09-06T10:34:21.070Z,71.57
2022-09-06T10:35:19.059Z,71.52
2022-09-06T10:36:11.069Z,71.60
2022-09-06T10:37:19.071Z,71.65
2022-09-06T10:38:19.061Z,71.61
2022-09-06T10:39:21.062Z,71.61
2022-09-06T10:40:16.071Z,71.51
2022-09-06T10:41:21.062Z,71.21
2022-09-06T10:42:19.061Z,71.18
2022-09-06T10:43:18.064Z,71.20
2022-09-06T10:44:19.066Z,71.00
2022-09-06T10:45:21.064Z,70.96
2022-09-06T10:46:17.129Z,71.08
2022-09-06T10:47:14.063Z,70.89
2022-09-06T10:48:22.063Z,70.68
2022-09-06T10:49:17.070Z,70.84
2022-09-06T10:50:11.123Z,71.25
2022-09-06T10:51:19.059Z,70.97
2022-09-06T10:52:13.064Z,70.69
2022-09-06T10:53:19.064Z,70.85
2022-09-06T10:54:14.064Z,71.10
2022-09-06T10:55:15.066Z,71.02
2022-09-06T10:56:19.072Z,71.06
2022-09-06T10:59:37.678Z,71.17
2022-09-06T11:00:17.340Z,71.20
2022-09-06T11:01:21.187Z,71.05
2022-09-06T11:02:23.237Z,71.25
2022-09-06T11:04:16.067Z,71.33
2022-09-06T11:05:39.410Z,71.29
2022-09-06T11:06:13.073Z,71.44
2022-09-06T11:07:20.065Z,71.42
2022-09-06T11:08:47.071Z,71.60
2022-09-06T11:09:25.365Z,71.78
2022-09-06T11:10:19.068Z,71.68
2022-09-06T11:11:17.096Z,71.74
2022-09-06T11:12:18.066Z,71.59
2022-09-06T11:13:19.066Z,71.66
2022-09-06T11:14:13.080Z,71.56
2022-09-06T11:15:12.067Z,71.72
2022-09-06T11:16:19.159Z,71.90
2022-09-06T11:17:19.067Z,71.84
2022-09-06T11:18:21.073Z,72.12
2022-09-06T11:19:19.066Z,72.04
2022-09-06T11:20:19.082Z,72.25
2022-09-06T11:21:21.057Z,72.02
2022-09-06T11:22:19.058Z,72.30
2022-09-06T11:23:21.072Z,72.35
2022-09-06T11:24:18.074Z,72.22
2022-09-06T11:25:19.065Z,72.30
2022-09-06T11:26:19.061Z,71.90
2022-09-06T11:27:21.057Z,71.75
2022-09-06T11:28:15.057Z,71.78
2022-09-06T11:29:16.059Z,71.81
2022-09-06T11:30:15.064Z,71.68
2022-09-06T11:32:21.300Z,71.76
2022-09-06T11:33:19.063Z,71.84
2022-09-06T11:34:18.062Z,70.75
2022-09-06T11:35:15.068Z,70.14
2022-09-06T11:36:18.063Z,70.17
2022-09-06T11:37:15.060Z,69.92
2022-09-06T11:38:19.060Z,69.30
2022-09-06T11:39:11.063Z,68.93
2022-09-06T11:40:27.375Z,68.98
2022-09-06T11:41:18.085Z,68.46
2022-09-06T11:42:15.063Z,68.16
2022-09-06T11:43:12.077Z,67.54
2022-09-06T11:44:11.065Z,67.39
2022-09-06T11:45:18.065Z,67.09
2022-09-06T11:46:11.075Z,67.40
2022-09-06T11:47:11.063Z,67.04
2022-09-06T11:48:19.064Z,66.65
2022-09-06T11:49:19.063Z,66.70
2022-09-06T11:50:19.065Z,66.45
2022-09-06T11:51:11.239Z,66.60
2022-09-06T11:52:19.062Z,66.77
2022-09-06T11:53:17.061Z,66.08
2022-09-06T11:54:19.064Z,65.59
2022-09-06T11:55:12.071Z,65.23
2022-09-06T11:56:21.086Z,65.63
2022-09-06T11:57:16.063Z,65.97
2022-09-06T11:58:21.069Z,65.81
2022-09-06T11:59:21.104Z,65.86
2022-09-06T12:00:19.065Z,65.86
2022-09-06T12:01:19.073Z,65.76
2022-09-06T12:02:19.127Z,65.34
2022-09-06T12:04:13.097Z,64.76
2022-09-06T12:05:15.067Z,64.39
2022-09-06T12:06:19.065Z,64.40
2022-09-06T12:07:12.067Z,64.21
2022-09-06T12:08:21.079Z,63.78
2022-09-06T12:09:19.076Z,63.76
2022-09-06T12:10:19.065Z,63.85
2022-09-06T12:11:19.069Z,63.57
2022-09-06T12:12:16.203Z,63.50
2022-09-06T12:13:21.100Z,63.29
2022-09-06T12:14:19.078Z,63.71
2022-09-06T12:15:19.064Z,63.71
2022-09-06T12:16:11.142Z,64.24
2022-09-06T12:17:17.100Z,64.30
2022-09-06T12:18:15.070Z,63.80
2022-09-06T12:19:15.067Z,63.88
2022-09-06T12:20:11.068Z,63.45
2022-09-06T12:21:15.067Z,63.26
2022-09-06T12:22:19.056Z,63.23
2022-09-06T12:23:15.055Z,63.34
2022-09-06T12:24:19.061Z,63.38
2022-09-06T12:25:19.061Z,63.62
2022-09-06T12:26:11.060Z,63.07
2022-09-06T12:27:17.061Z,63.63
2022-09-06T12:28:21.064Z,63.69
2022-09-06T12:29:13.066Z,63.17
2022-09-06T12:30:12.061Z,63.38
2022-09-06T12:31:19.157Z,62.91
2022-09-06T12:32:11.065Z,63.21
2022-09-06T12:33:17.058Z,63.18
2022-09-06T12:34:13.064Z,63.29
2022-09-06T12:36:21.070Z,63.40
2022-09-06T12:37:11.072Z,63.36
2022-09-06T12:38:13.065Z,63.59
2022-09-06T12:39:11.069Z,63.43
2022-09-06T12:40:11.111Z,63.79
2022-09-06T12:41:12.063Z,64.01
2022-09-06T12:42:13.086Z,63.88
2022-09-06T12:43:12.061Z,64.32
2022-09-06T12:44:11.066Z,64.28
2022-09-06T12:45:11.069Z,64.40
2022-09-06T12:46:11.114Z,64.21
2022-09-06T12:47:19.059Z,63.89
2022-09-06T12:48:11.063Z,63.92
2022-09-06T12:49:11.072Z,63.65
2022-09-06T12:50:19.061Z,63.49
2022-09-06T12:51:11.060Z,63.30
2022-09-06T12:52:19.070Z,63.01
2022-09-06T12:53:22.774Z,62.79
2022-09-06T12:54:19.063Z,62.29
2022-09-06T12:55:20.060Z,62.25
2022-09-06T12:56:13.066Z,62.26
2022-09-06T12:57:17.066Z,62.26
2022-09-06T12:58:11.078Z,62.65
2022-09-06T12:59:14.067Z,62.24
2022-09-06T13:00:11.065Z,61.73
2022-09-06T13:01:20.207Z,61.55
2022-09-06T13:02:16.190Z,61.90
2022-09-06T13:03:19.066Z,61.72
2022-09-06T13:04:19.073Z,61.74
2022-09-06T13:05:12.068Z,61.45
2022-09-06T13:06:12.066Z,61.41
2022-09-06T13:07:14.085Z,61.40
2022-09-06T13:08:15.075Z,61.30
2022-09-06T13:09:16.064Z,61.39
2022-09-06T13:10:11.063Z,61.24
2022-09-06T13:11:13.068Z,60.83
2022-09-06T13:12:15.068Z,60.98
2022-09-06T13:13:11.066Z,61.24